Main page
METAR-TAF:

METAR-TAF

Airports :

Edinburgh, Scotland

Edinburgh Airport

latitude: 55-57N, longitude: 003-21W, elevation: 41 m

Current weather observation

The report was made 38 minutes ago, at 21:50 UTC
Wind 4 kt from the South/Southwest
Temperature 1°C
Humidity 86%
Pressure 999 hPa
Visibility 10 km or more
Broken clouds at a height of 3100 ft

METAR: EGPH 112150Z 21004KT 9999 BKN031 01/M01 Q0999

Time: 22:28 (22:28 UTC)

Forecast

The report was made 5 hours and 25 minutes ago, at 17:03 UTC
Forecast valid from 11 at 18 UTC to 12 at 18 UTC
Wind 5 kt from the West
Visibility 10 km or more
Scattered clouds at a height of 4000 ft
Probability 40% :
Temporary
from 12 at 16 UTC to 12 at 18 UTC
Broken clouds at a height of 1400 ft
light rain

TAF: EGPH 111703Z 1118/1218 28005KT 9999 SCT040 PROB40 TEMPO 1216/1218 -RA BKN014

Weather observations and forecasts of more than 4000 airports (METAR and TAF reports).

The available stations are represented by yellow and red dots on the map.

Hover mouse over dot to see the name of the station.

Then click to see weather observations and forecasts.

To change the map : click on the green buttons with a black cross to zoom in, on the green button with a dash to zoom out, or on the green arrows for adjacent maps.


METAR-TAF: